sensor_id;sensor_type;location;lat;lon;timestamp;P1;durP1;ratioP1;P2;durP2;ratioP2
41927;SDS011;27616;51.420;6.788;2023-08-17T00:01:46;9.30;;;3.60;;
41927;SDS011;27616;51.420;6.788;2023-08-17T00:04:12;6.88;;;3.65;;
41927;SDS011;27616;51.420;6.788;2023-08-17T00:06:38;6.53;;;3.28;;
41927;SDS011;27616;51.420;6.788;2023-08-17T00:09:04;8.25;;;3.88;;
41927;SDS011;27616;51.420;6.788;2023-08-17T00:11:30;9.13;;;3.97;;
41927;SDS011;27616;51.420;6.788;2023-08-17T00:13:55;6.03;;;3.65;;
41927;SDS011;27616;51.420;6.788;2023-08-17T00:16:21;9.10;;;4.28;;
41927;SDS011;27616;51.420;6.788;2023-08-17T00:18:48;7.50;;;4.15;;
41927;SDS011;27616;51.420;6.788;2023-08-17T00:21:14;7.95;;;4.20;;
41927;SDS011;27616;51.420;6.788;2023-08-17T00:23:40;8.95;;;4.03;;
41927;SDS011;27616;51.420;6.788;2023-08-17T00:26:05;7.10;;;4.18;;
41927;SDS011;27616;51.420;6.788;2023-08-17T00:28:31;8.73;;;4.38;;
41927;SDS011;27616;51.420;6.788;2023-08-17T00:30:57;6.63;;;3.80;;
41927;SDS011;27616;51.420;6.788;2023-08-17T00:33:24;7.60;;;4.20;;
41927;SDS011;27616;51.420;6.788;2023-08-17T00:35:50;7.10;;;3.90;;
41927;SDS011;27616;51.420;6.788;2023-08-17T00:38:17;11.50;;;3.67;;
41927;SDS011;27616;51.420;6.788;2023-08-17T00:40:42;6.00;;;3.40;;
41927;SDS011;27616;51.420;6.788;2023-08-17T00:43:08;6.88;;;3.50;;
41927;SDS011;27616;51.420;6.788;2023-08-17T00:45:34;5.88;;;3.42;;
41927;SDS011;27616;51.420;6.788;2023-08-17T00:48:00;7.15;;;3.65;;
41927;SDS011;27616;51.420;6.788;2023-08-17T00:50:26;7.10;;;3.80;;
41927;SDS011;27616;51.420;6.788;2023-08-17T00:52:53;6.80;;;3.65;;
41927;SDS011;27616;51.420;6.788;2023-08-17T00:55:20;5.53;;;3.40;;
41927;SDS011;27616;51.420;6.788;2023-08-17T00:57:47;5.63;;;3.13;;
41927;SDS011;27616;51.420;6.788;2023-08-17T01:00:13;6.05;;;3.10;;
41927;SDS011;27616;51.420;6.788;2023-08-17T01:02:40;6.28;;;3.70;;
41927;SDS011;27616;51.420;6.788;2023-08-17T01:05:07;9.32;;;3.65;;
41927;SDS011;27616;51.420;6.788;2023-08-17T01:07:33;8.13;;;3.30;;
41927;SDS011;27616;51.420;6.788;2023-08-17T01:09:59;7.25;;;3.83;;
41927;SDS011;27616;51.420;6.788;2023-08-17T01:17:42;11.70;;;4.50;;
41927;SDS011;27616;51.420;6.788;2023-08-17T01:20:26;7.45;;;3.75;;
41927;SDS011;27616;51.420;6.788;2023-08-17T01:22:55;7.10;;;3.92;;
41927;SDS011;27616;51.420;6.788;2023-08-17T01:25:24;8.52;;;4.32;;
41927;SDS011;27616;51.420;6.788;2023-08-17T01:27:49;6.82;;;3.95;;
41927;SDS011;27616;51.420;6.788;2023-08-17T01:30:15;7.10;;;3.95;;
41927;SDS011;27616;51.420;6.788;2023-08-17T01:32:54;6.53;;;3.53;;
41927;SDS011;27616;51.420;6.788;2023-08-17T01:35:32;8.98;;;4.22;;
41927;SDS011;27616;51.420;6.788;2023-08-17T01:38:02;7.13;;;4.28;;
41927;SDS011;27616;51.420;6.788;2023-08-17T01:40:32;6.95;;;3.78;;
41927;SDS011;27616;51.420;6.788;2023-08-17T01:42:59;9.15;;;4.10;;
41927;SDS011;27616;51.420;6.788;2023-08-17T01:45:26;6.80;;;3.42;;
41927;SDS011;27616;51.420;6.788;2023-08-17T01:47:52;9.52;;;4.00;;
41927;SDS011;27616;51.420;6.788;2023-08-17T01:50:18;6.30;;;3.90;;
41927;SDS011;27616;51.420;6.788;2023-08-17T01:52:43;9.25;;;3.92;;
41927;SDS011;27616;51.420;6.788;2023-08-17T01:55:09;5.50;;;3.50;;
41927;SDS011;27616;51.420;6.788;2023-08-17T01:57:35;6.40;;;3.60;;
41927;SDS011;27616;51.420;6.788;2023-08-17T02:00:02;5.85;;;3.83;;
41927;SDS011;27616;51.420;6.788;2023-08-17T02:02:39;10.43;;;4.68;;
41927;SDS011;27616;51.420;6.788;2023-08-17T02:05:05;8.48;;;4.22;;
41927;SDS011;27616;51.420;6.788;2023-08-17T02:07:31;6.93;;;3.90;;
41927;SDS011;27616;51.420;6.788;2023-08-17T02:09:56;9.20;;;4.70;;
41927;SDS011;27616;51.420;6.788;2023-08-17T02:12:22;8.93;;;4.80;;
41927;SDS011;27616;51.420;6.788;2023-08-17T02:14:47;11.07;;;4.68;;
41927;SDS011;27616;51.420;6.788;2023-08-17T02:17:13;7.55;;;3.95;;
41927;SDS011;27616;51.420;6.788;2023-08-17T02:19:41;8.68;;;4.00;;
41927;SDS011;27616;51.420;6.788;2023-08-17T02:22:10;5.85;;;3.47;;
41927;SDS011;27616;51.420;6.788;2023-08-17T02:24:36;8.25;;;3.45;;
41927;SDS011;27616;51.420;6.788;2023-08-17T02:27:02;7.20;;;3.40;;
41927;SDS011;27616;51.420;6.788;2023-08-17T02:29:28;7.25;;;3.13;;
41927;SDS011;27616;51.420;6.788;2023-08-17T02:31:53;7.22;;;3.38;;
41927;SDS011;27616;51.420;6.788;2023-08-17T02:34:19;4.65;;;3.17;;
41927;SDS011;27616;51.420;6.788;2023-08-17T02:36:45;5.35;;;3.35;;
41927;SDS011;27616;51.420;6.788;2023-08-17T02:39:10;6.43;;;3.72;;
41927;SDS011;27616;51.420;6.788;2023-08-17T02:41:36;7.25;;;4.28;;
41927;SDS011;27616;51.420;6.788;2023-08-17T02:44:01;7.15;;;3.80;;
41927;SDS011;27616;51.420;6.788;2023-08-17T02:46:27;5.05;;;3.38;;
41927;SDS011;27616;51.420;6.788;2023-08-17T02:48:53;5.55;;;3.60;;
41927;SDS011;27616;51.420;6.788;2023-08-17T02:51:19;8.88;;;3.92;;
41927;SDS011;27616;51.420;6.788;2023-08-17T02:53:44;7.28;;;3.95;;
41927;SDS011;27616;51.420;6.788;2023-08-17T02:56:10;7.63;;;3.60;;
41927;SDS011;27616;51.420;6.788;2023-08-17T02:58:40;9.65;;;4.30;;
41927;SDS011;27616;51.420;6.788;2023-08-17T03:01:09;7.15;;;4.28;;
41927;SDS011;27616;51.420;6.788;2023-08-17T03:03:34;8.63;;;3.90;;
41927;SDS011;27616;51.420;6.788;2023-08-17T03:06:01;8.13;;;3.97;;
41927;SDS011;27616;51.420;6.788;2023-08-17T03:08:27;7.30;;;4.30;;
41927;SDS011;27616;51.420;6.788;2023-08-17T03:10:52;9.63;;;4.30;;
41927;SDS011;27616;51.420;6.788;2023-08-17T03:13:19;8.68;;;4.30;;
41927;SDS011;27616;51.420;6.788;2023-08-17T03:15:44;10.45;;;5.25;;
41927;SDS011;27616;51.420;6.788;2023-08-17T03:18:10;9.98;;;4.47;;
41927;SDS011;27616;51.420;6.788;2023-08-17T03:20:37;7.55;;;4.10;;
41927;SDS011;27616;51.420;6.788;2023-08-17T03:23:03;9.98;;;4.28;;
41927;SDS011;27616;51.420;6.788;2023-08-17T03:25:32;8.07;;;4.22;;
41927;SDS011;27616;51.420;6.788;2023-08-17T03:27:59;9.35;;;4.47;;
41927;SDS011;27616;51.420;6.788;2023-08-17T03:30:25;7.35;;;3.90;;
41927;SDS011;27616;51.420;6.788;2023-08-17T03:32:51;6.95;;;3.83;;
41927;SDS011;27616;51.420;6.788;2023-08-17T03:35:17;8.25;;;3.83;;
41927;SDS011;27616;51.420;6.788;2023-08-17T03:37:42;8.43;;;3.97;;
41927;SDS011;27616;51.420;6.788;2023-08-17T03:40:09;6.20;;;3.53;;
41927;SDS011;27616;51.420;6.788;2023-08-17T03:42:35;7.38;;;3.50;;
41927;SDS011;27616;51.420;6.788;2023-08-17T03:45:01;6.82;;;3.88;;
41927;SDS011;27616;51.420;6.788;2023-08-17T03:47:28;8.27;;;3.95;;
41927;SDS011;27616;51.420;6.788;2023-08-17T03:49:53;6.07;;;4.00;;
41927;SDS011;27616;51.420;6.788;2023-08-17T03:52:19;10.02;;;4.10;;
41927;SDS011;27616;51.420;6.788;2023-08-17T03:54:46;8.18;;;3.70;;
41927;SDS011;27616;51.420;6.788;2023-08-17T03:57:12;7.55;;;3.35;;
41927;SDS011;27616;51.420;6.788;2023-08-17T03:59:38;8.05;;;3.25;;
41927;SDS011;27616;51.420;6.788;2023-08-17T04:02:03;6.05;;;3.17;;
41927;SDS011;27616;51.420;6.788;2023-08-17T04:04:29;6.75;;;3.60;;
41927;SDS011;27616;51.420;6.788;2023-08-17T04:06:56;7.63;;;3.22;;
41927;SDS011;27616;51.420;6.788;2023-08-17T04:09:22;7.30;;;3.08;;
41927;SDS011;27616;51.420;6.788;2023-08-17T04:11:47;6.25;;;3.35;;
41927;SDS011;27616;51.420;6.788;2023-08-17T04:14:13;7.60;;;3.58;;
41927;SDS011;27616;51.420;6.788;2023-08-17T04:16:39;5.43;;;3.20;;
41927;SDS011;27616;51.420;6.788;2023-08-17T04:19:05;7.80;;;3.10;;
41927;SDS011;27616;51.420;6.788;2023-08-17T04:21:31;4.72;;;2.92;;
41927;SDS011;27616;51.420;6.788;2023-08-17T04:23:56;5.60;;;2.85;;
41927;SDS011;27616;51.420;6.788;2023-08-17T04:26:22;6.00;;;3.25;;
41927;SDS011;27616;51.420;6.788;2023-08-17T04:28:49;8.10;;;3.08;;
41927;SDS011;27616;51.420;6.788;2023-08-17T04:31:15;8.07;;;3.45;;
41927;SDS011;27616;51.420;6.788;2023-08-17T04:33:43;9.07;;;3.35;;
41927;SDS011;27616;51.420;6.788;2023-08-17T04:36:09;8.05;;;3.13;;
41927;SDS011;27616;51.420;6.788;2023-08-17T04:38:36;7.85;;;3.47;;
41927;SDS011;27616;51.420;6.788;2023-08-17T04:41:01;9.02;;;3.30;;
41927;SDS011;27616;51.420;6.788;2023-08-17T04:43:28;8.65;;;3.38;;
41927;SDS011;27616;51.420;6.788;2023-08-17T04:45:54;7.60;;;3.13;;
41927;SDS011;27616;51.420;6.788;2023-08-17T04:48:20;7.00;;;3.38;;
41927;SDS011;27616;51.420;6.788;2023-08-17T04:50:48;8.65;;;3.60;;
41927;SDS011;27616;51.420;6.788;2023-08-17T04:53:13;6.55;;;3.50;;
41927;SDS011;27616;51.420;6.788;2023-08-17T04:55:39;6.72;;;3.28;;
41927;SDS011;27616;51.420;6.788;2023-08-17T04:58:05;6.68;;;3.33;;
41927;SDS011;27616;51.420;6.788;2023-08-17T05:00:30;6.70;;;3.38;;
41927;SDS011;27616;51.420;6.788;2023-08-17T05:02:56;6.90;;;3.65;;
41927;SDS011;27616;51.420;6.788;2023-08-17T05:05:26;7.00;;;3.95;;
41927;SDS011;27616;51.420;6.788;2023-08-17T05:07:52;6.72;;;4.00;;
41927;SDS011;27616;51.420;6.788;2023-08-17T05:10:18;10.27;;;3.55;;
41927;SDS011;27616;51.420;6.788;2023-08-17T05:12:44;6.80;;;3.30;;
41927;SDS011;27616;51.420;6.788;2023-08-17T05:15:10;6.95;;;3.17;;
41927;SDS011;27616;51.420;6.788;2023-08-17T05:17:36;8.93;;;4.05;;
41927;SDS011;27616;51.420;6.788;2023-08-17T05:20:02;6.15;;;3.83;;
41927;SDS011;27616;51.420;6.788;2023-08-17T05:22:29;8.88;;;3.75;;
41927;SDS011;27616;51.420;6.788;2023-08-17T05:24:55;7.63;;;3.55;;
41927;SDS011;27616;51.420;6.788;2023-08-17T05:27:21;7.78;;;3.13;;
41927;SDS011;27616;51.420;6.788;2023-08-17T05:29:47;8.73;;;3.85;;
41927;SDS011;27616;51.420;6.788;2023-08-17T05:32:13;4.90;;;2.97;;
41927;SDS011;27616;51.420;6.788;2023-08-17T05:34:40;6.60;;;2.92;;
41927;SDS011;27616;51.420;6.788;2023-08-17T05:37:06;6.30;;;3.50;;
41927;SDS011;27616;51.420;6.788;2023-08-17T05:39:32;5.22;;;3.22;;
41927;SDS011;27616;51.420;6.788;2023-08-17T05:41:57;10.80;;;3.45;;
41927;SDS011;27616;51.420;6.788;2023-08-17T05:44:23;5.97;;;3.70;;
41927;SDS011;27616;51.420;6.788;2023-08-17T05:46:49;8.55;;;3.75;;
41927;SDS011;27616;51.420;6.788;2023-08-17T05:49:14;5.18;;;3.00;;
41927;SDS011;27616;51.420;6.788;2023-08-17T05:51:40;6.30;;;3.40;;
41927;SDS011;27616;51.420;6.788;2023-08-17T05:54:06;8.63;;;3.60;;
41927;SDS011;27616;51.420;6.788;2023-08-17T05:56:32;6.38;;;3.38;;
41927;SDS011;27616;51.420;6.788;2023-08-17T05:58:57;9.18;;;3.65;;
41927;SDS011;27616;51.420;6.788;2023-08-17T06:01:23;6.97;;;3.50;;
41927;SDS011;27616;51.420;6.788;2023-08-17T06:03:49;6.68;;;3.38;;
41927;SDS011;27616;51.420;6.788;2023-08-17T06:06:14;9.10;;;3.65;;
41927;SDS011;27616;51.420;6.788;2023-08-17T06:08:40;7.65;;;3.80;;
41927;SDS011;27616;51.420;6.788;2023-08-17T06:11:06;8.20;;;4.30;;
41927;SDS011;27616;51.420;6.788;2023-08-17T06:13:31;12.43;;;4.30;;
41927;SDS011;27616;51.420;6.788;2023-08-17T06:15:57;6.50;;;4.13;;
41927;SDS011;27616;51.420;6.788;2023-08-17T06:18:23;9.23;;;3.65;;
41927;SDS011;27616;51.420;6.788;2023-08-17T06:20:48;8.77;;;4.50;;
41927;SDS011;27616;51.420;6.788;2023-08-17T06:23:17;8.88;;;4.00;;
41927;SDS011;27616;51.420;6.788;2023-08-17T06:25:42;8.82;;;3.95;;
41927;SDS011;27616;51.420;6.788;2023-08-17T06:28:08;8.57;;;4.03;;
41927;SDS011;27616;51.420;6.788;2023-08-17T06:30:34;8.45;;;4.57;;
41927;SDS011;27616;51.420;6.788;2023-08-17T06:32:59;6.95;;;4.10;;
41927;SDS011;27616;51.420;6.788;2023-08-17T06:35:25;8.82;;;4.10;;
41927;SDS011;27616;51.420;6.788;2023-08-17T06:37:50;9.73;;;4.90;;
41927;SDS011;27616;51.420;6.788;2023-08-17T06:40:19;8.70;;;4.60;;
41927;SDS011;27616;51.420;6.788;2023-08-17T06:42:44;10.20;;;5.05;;
41927;SDS011;27616;51.420;6.788;2023-08-17T06:45:10;11.10;;;5.43;;
41927;SDS011;27616;51.420;6.788;2023-08-17T06:47:35;11.23;;;6.68;;
41927;SDS011;27616;51.420;6.788;2023-08-17T06:50:01;9.30;;;5.93;;
41927;SDS011;27616;51.420;6.788;2023-08-17T06:52:27;10.65;;;6.38;;
41927;SDS011;27616;51.420;6.788;2023-08-17T06:54:52;13.82;;;7.00;;
41927;SDS011;27616;51.420;6.788;2023-08-17T06:57:18;14.18;;;6.78;;
41927;SDS011;27616;51.420;6.788;2023-08-17T06:59:44;12.98;;;7.03;;
41927;SDS011;27616;51.420;6.788;2023-08-17T07:02:11;11.98;;;6.57;;
41927;SDS011;27616;51.420;6.788;2023-08-17T07:04:36;11.93;;;6.30;;
41927;SDS011;27616;51.420;6.788;2023-08-17T07:07:02;11.20;;;7.32;;
41927;SDS011;27616;51.420;6.788;2023-08-17T07:09:28;14.60;;;7.10;;
41927;SDS011;27616;51.420;6.788;2023-08-17T07:11:54;14.65;;;8.48;;
41927;SDS011;27616;51.420;6.788;2023-08-17T07:14:19;12.93;;;7.78;;
41927;SDS011;27616;51.420;6.788;2023-08-17T07:16:45;16.15;;;8.18;;
41927;SDS011;27616;51.420;6.788;2023-08-17T07:19:11;16.45;;;8.48;;
41927;SDS011;27616;51.420;6.788;2023-08-17T07:21:38;18.58;;;8.57;;
41927;SDS011;27616;51.420;6.788;2023-08-17T07:24:13;18.65;;;9.10;;
41927;SDS011;27616;51.420;6.788;2023-08-17T07:26:39;14.98;;;8.00;;
41927;SDS011;27616;51.420;6.788;2023-08-17T07:29:05;15.52;;;7.70;;
41927;SDS011;27616;51.420;6.788;2023-08-17T07:31:31;12.93;;;7.97;;
41927;SDS011;27616;51.420;6.788;2023-08-17T07:33:58;14.63;;;8.27;;
41927;SDS011;27616;51.420;6.788;2023-08-17T07:36:24;15.30;;;7.70;;
41927;SDS011;27616;51.420;6.788;2023-08-17T07:38:50;14.48;;;7.05;;
41927;SDS011;27616;51.420;6.788;2023-08-17T07:41:16;14.70;;;7.82;;
41927;SDS011;27616;51.420;6.788;2023-08-17T07:43:41;19.08;;;8.52;;
41927;SDS011;27616;51.420;6.788;2023-08-17T07:46:07;14.45;;;7.38;;
41927;SDS011;27616;51.420;6.788;2023-08-17T07:48:32;14.52;;;7.75;;
41927;SDS011;27616;51.420;6.788;2023-08-17T07:50:59;13.60;;;7.00;;
41927;SDS011;27616;51.420;6.788;2023-08-17T07:53:25;11.75;;;6.80;;
41927;SDS011;27616;51.420;6.788;2023-08-17T07:55:50;14.45;;;7.40;;
41927;SDS011;27616;51.420;6.788;2023-08-17T07:58:16;15.05;;;7.15;;
41927;SDS011;27616;51.420;6.788;2023-08-17T08:00:41;15.38;;;7.45;;
41927;SDS011;27616;51.420;6.788;2023-08-17T08:03:07;15.30;;;6.90;;
41927;SDS011;27616;51.420;6.788;2023-08-17T08:05:33;12.75;;;6.78;;
41927;SDS011;27616;51.420;6.788;2023-08-17T08:07:59;14.75;;;7.78;;
41927;SDS011;27616;51.420;6.788;2023-08-17T08:10:24;17.20;;;8.35;;
41927;SDS011;27616;51.420;6.788;2023-08-17T08:12:50;17.27;;;8.25;;
41927;SDS011;27616;51.420;6.788;2023-08-17T08:15:15;18.58;;;9.25;;
41927;SDS011;27616;51.420;6.788;2023-08-17T08:17:41;19.30;;;10.38;;
41927;SDS011;27616;51.420;6.788;2023-08-17T08:20:08;21.20;;;10.48;;
41927;SDS011;27616;51.420;6.788;2023-08-17T08:22:33;20.10;;;10.57;;
41927;SDS011;27616;51.420;6.788;2023-08-17T08:24:59;21.52;;;10.18;;
41927;SDS011;27616;51.420;6.788;2023-08-17T08:27:25;21.33;;;9.88;;
41927;SDS011;27616;51.420;6.788;2023-08-17T08:29:50;20.52;;;10.10;;
41927;SDS011;27616;51.420;6.788;2023-08-17T08:32:16;21.45;;;11.10;;
41927;SDS011;27616;51.420;6.788;2023-08-17T08:34:41;21.17;;;10.35;;
41927;SDS011;27616;51.420;6.788;2023-08-17T08:37:07;21.85;;;11.43;;
41927;SDS011;27616;51.420;6.788;2023-08-17T08:39:32;23.02;;;11.57;;
41927;SDS011;27616;51.420;6.788;2023-08-17T08:42:17;16.95;;;10.10;;
41927;SDS011;27616;51.420;6.788;2023-08-17T08:44:44;21.83;;;10.68;;
41927;SDS011;27616;51.420;6.788;2023-08-17T08:47:10;17.13;;;9.80;;
41927;SDS011;27616;51.420;6.788;2023-08-17T08:49:40;15.07;;;8.13;;
41927;SDS011;27616;51.420;6.788;2023-08-17T08:52:11;16.50;;;8.95;;
41927;SDS011;27616;51.420;6.788;2023-08-17T08:54:42;13.15;;;7.22;;
41927;SDS011;27616;51.420;6.788;2023-08-17T08:57:11;9.10;;;5.60;;
41927;SDS011;27616;51.420;6.788;2023-08-17T08:59:39;17.75;;;8.75;;
41927;SDS011;27616;51.420;6.788;2023-08-17T09:02:14;27.42;;;13.68;;
41927;SDS011;27616;51.420;6.788;2023-08-17T09:04:44;22.90;;;13.18;;
41927;SDS011;27616;51.420;6.788;2023-08-17T09:07:10;25.20;;;12.75;;
41927;SDS011;27616;51.420;6.788;2023-08-17T09:09:38;23.30;;;13.25;;
41927;SDS011;27616;51.420;6.788;2023-08-17T09:12:04;23.42;;;12.05;;
41927;SDS011;27616;51.420;6.788;2023-08-17T09:14:33;24.02;;;13.18;;
41927;SDS011;27616;51.420;6.788;2023-08-17T09:16:59;22.52;;;12.82;;
41927;SDS011;27616;51.420;6.788;2023-08-17T09:19:24;24.30;;;12.98;;
41927;SDS011;27616;51.420;6.788;2023-08-17T09:21:50;21.48;;;12.77;;
41927;SDS011;27616;51.420;6.788;2023-08-17T09:24:16;18.05;;;10.70;;
41927;SDS011;27616;51.420;6.788;2023-08-17T09:26:42;19.90;;;12.50;;
41927;SDS011;27616;51.420;6.788;2023-08-17T09:29:20;21.98;;;12.23;;
41927;SDS011;27616;51.420;6.788;2023-08-17T09:31:46;27.00;;;13.65;;
41927;SDS011;27616;51.420;6.788;2023-08-17T09:34:14;24.40;;;13.55;;
41927;SDS011;27616;51.420;6.788;2023-08-17T09:36:40;30.98;;;14.73;;
41927;SDS011;27616;51.420;6.788;2023-08-17T09:39:06;22.58;;;13.63;;
41927;SDS011;27616;51.420;6.788;2023-08-17T09:41:41;20.55;;;12.80;;
41927;SDS011;27616;51.420;6.788;2023-08-17T09:44:07;22.55;;;12.57;;
41927;SDS011;27616;51.420;6.788;2023-08-17T09:46:32;21.27;;;13.77;;
41927;SDS011;27616;51.420;6.788;2023-08-17T09:48:59;23.45;;;12.93;;
41927;SDS011;27616;51.420;6.788;2023-08-17T09:51:29;22.02;;;12.75;;
41927;SDS011;27616;51.420;6.788;2023-08-17T09:53:55;22.27;;;12.15;;
41927;SDS011;27616;51.420;6.788;2023-08-17T09:56:22;18.23;;;12.23;;
41927;SDS011;27616;51.420;6.788;2023-08-17T09:58:49;22.58;;;13.77;;
41927;SDS011;27616;51.420;6.788;2023-08-17T10:01:15;24.77;;;13.40;;
41927;SDS011;27616;51.420;6.788;2023-08-17T10:03:43;20.60;;;12.63;;
41927;SDS011;27616;51.420;6.788;2023-08-17T10:06:12;21.17;;;12.88;;
41927;SDS011;27616;51.420;6.788;2023-08-17T10:08:42;23.08;;;11.98;;
41927;SDS011;27616;51.420;6.788;2023-08-17T10:11:10;23.60;;;11.98;;
41927;SDS011;27616;51.420;6.788;2023-08-17T10:13:42;21.35;;;12.40;;
41927;SDS011;27616;51.420;6.788;2023-08-17T10:16:24;30.85;;;15.00;;
41927;SDS011;27616;51.420;6.788;2023-08-17T10:18:54;25.30;;;15.05;;
41927;SDS011;27616;51.420;6.788;2023-08-17T10:21:31;26.75;;;15.75;;
41927;SDS011;27616;51.420;6.788;2023-08-17T10:24:00;28.65;;;14.88;;
41927;SDS011;27616;51.420;6.788;2023-08-17T10:26:28;23.67;;;14.48;;
41927;SDS011;27616;51.420;6.788;2023-08-17T10:28:54;25.52;;;15.05;;
41927;SDS011;27616;51.420;6.788;2023-08-17T10:31:23;26.00;;;15.10;;
41927;SDS011;27616;51.420;6.788;2023-08-17T10:33:50;23.17;;;14.63;;
41927;SDS011;27616;51.420;6.788;2023-08-17T10:36:16;24.13;;;14.13;;
41927;SDS011;27616;51.420;6.788;2023-08-17T10:38:42;20.88;;;13.85;;
41927;SDS011;27616;51.420;6.788;2023-08-17T10:41:09;22.92;;;14.75;;
41927;SDS011;27616;51.420;6.788;2023-08-17T10:43:55;23.90;;;15.27;;
41927;SDS011;27616;51.420;6.788;2023-08-17T10:49:03;25.13;;;14.55;;
41927;SDS011;27616;51.420;6.788;2023-08-17T10:51:31;26.15;;;14.25;;
41927;SDS011;27616;51.420;6.788;2023-08-17T10:53:58;19.55;;;13.23;;
41927;SDS011;27616;51.420;6.788;2023-08-17T10:56:26;21.20;;;12.60;;
41927;SDS011;27616;51.420;6.788;2023-08-17T10:58:53;20.90;;;13.18;;
41927;SDS011;27616;51.420;6.788;2023-08-17T11:01:30;19.30;;;13.50;;
41927;SDS011;27616;51.420;6.788;2023-08-17T11:04:10;18.88;;;12.38;;
41927;SDS011;27616;51.420;6.788;2023-08-17T11:06:43;17.00;;;11.32;;
41927;SDS011;27616;51.420;6.788;2023-08-17T11:09:09;19.20;;;11.35;;
41927;SDS011;27616;51.420;6.788;2023-08-17T11:11:35;16.48;;;10.13;;
41927;SDS011;27616;51.420;6.788;2023-08-17T11:14:01;18.83;;;10.20;;
41927;SDS011;27616;51.420;6.788;2023-08-17T11:16:27;19.92;;;12.23;;
41927;SDS011;27616;51.420;6.788;2023-08-17T11:18:52;19.02;;;12.02;;
41927;SDS011;27616;51.420;6.788;2023-08-17T11:21:20;18.40;;;11.75;;
41927;SDS011;27616;51.420;6.788;2023-08-17T11:23:46;20.65;;;11.73;;
41927;SDS011;27616;51.420;6.788;2023-08-17T11:26:12;23.00;;;12.75;;
41927;SDS011;27616;51.420;6.788;2023-08-17T11:28:41;23.05;;;13.20;;
41927;SDS011;27616;51.420;6.788;2023-08-17T11:31:08;22.02;;;13.52;;
41927;SDS011;27616;51.420;6.788;2023-08-17T11:33:35;20.98;;;12.38;;
41927;SDS011;27616;51.420;6.788;2023-08-17T11:36:03;20.35;;;12.50;;
41927;SDS011;27616;51.420;6.788;2023-08-17T11:38:37;26.15;;;13.73;;
41927;SDS011;27616;51.420;6.788;2023-08-17T11:41:04;24.98;;;13.25;;
41927;SDS011;27616;51.420;6.788;2023-08-17T11:43:33;21.08;;;13.00;;
41927;SDS011;27616;51.420;6.788;2023-08-17T11:45:59;23.23;;;12.93;;
41927;SDS011;27616;51.420;6.788;2023-08-17T11:48:26;18.17;;;11.98;;
41927;SDS011;27616;51.420;6.788;2023-08-17T11:50:52;21.20;;;12.10;;
41927;SDS011;27616;51.420;6.788;2023-08-17T11:53:20;20.70;;;11.77;;
41927;SDS011;27616;51.420;6.788;2023-08-17T11:55:46;21.27;;;11.85;;
41927;SDS011;27616;51.420;6.788;2023-08-17T11:58:11;21.13;;;12.23;;
41927;SDS011;27616;51.420;6.788;2023-08-17T12:00:41;17.10;;;11.45;;
41927;SDS011;27616;51.420;6.788;2023-08-17T12:03:12;20.23;;;11.40;;
41927;SDS011;27616;51.420;6.788;2023-08-17T12:05:41;16.38;;;10.88;;
41927;SDS011;27616;51.420;6.788;2023-08-17T12:08:09;21.80;;;12.07;;
41927;SDS011;27616;51.420;6.788;2023-08-17T12:10:36;24.13;;;12.90;;
41927;SDS011;27616;51.420;6.788;2023-08-17T12:13:02;22.83;;;12.90;;
41927;SDS011;27616;51.420;6.788;2023-08-17T12:15:31;19.98;;;12.40;;
41927;SDS011;27616;51.420;6.788;2023-08-17T12:18:01;22.05;;;12.70;;
41927;SDS011;27616;51.420;6.788;2023-08-17T12:20:29;22.40;;;12.60;;
41927;SDS011;27616;51.420;6.788;2023-08-17T12:22:57;21.98;;;12.95;;
41927;SDS011;27616;51.420;6.788;2023-08-17T12:25:26;20.13;;;12.85;;
41927;SDS011;27616;51.420;6.788;2023-08-17T12:27:52;21.00;;;12.85;;
41927;SDS011;27616;51.420;6.788;2023-08-17T12:30:29;21.55;;;12.25;;
41927;SDS011;27616;51.420;6.788;2023-08-17T12:33:01;19.08;;;12.18;;
41927;SDS011;27616;51.420;6.788;2023-08-17T12:35:27;22.95;;;11.95;;
41927;SDS011;27616;51.420;6.788;2023-08-17T12:37:53;21.17;;;11.73;;
41927;SDS011;27616;51.420;6.788;2023-08-17T12:40:19;19.23;;;11.93;;
41927;SDS011;27616;51.420;6.788;2023-08-17T12:42:46;23.08;;;14.10;;
41927;SDS011;27616;51.420;6.788;2023-08-17T12:45:12;23.90;;;13.95;;
41927;SDS011;27616;51.420;6.788;2023-08-17T12:47:38;20.35;;;12.57;;
41927;SDS011;27616;51.420;6.788;2023-08-17T12:50:04;20.80;;;13.68;;
41927;SDS011;27616;51.420;6.788;2023-08-17T12:52:30;22.50;;;13.85;;
41927;SDS011;27616;51.420;6.788;2023-08-17T12:54:56;24.08;;;13.50;;
41927;SDS011;27616;51.420;6.788;2023-08-17T12:57:22;23.30;;;12.98;;
41927;SDS011;27616;51.420;6.788;2023-08-17T12:59:48;22.30;;;13.32;;
41927;SDS011;27616;51.420;6.788;2023-08-17T13:02:13;20.73;;;12.98;;
41927;SDS011;27616;51.420;6.788;2023-08-17T13:04:39;22.45;;;12.55;;
41927;SDS011;27616;51.420;6.788;2023-08-17T13:07:06;26.23;;;13.70;;
41927;SDS011;27616;51.420;6.788;2023-08-17T13:09:31;22.88;;;13.00;;
41927;SDS011;27616;51.420;6.788;2023-08-17T13:11:57;22.02;;;13.25;;
41927;SDS011;27616;51.420;6.788;2023-08-17T13:14:23;20.05;;;12.52;;
41927;SDS011;27616;51.420;6.788;2023-08-17T13:16:49;24.30;;;14.35;;
41927;SDS011;27616;51.420;6.788;2023-08-17T13:19:16;23.15;;;13.32;;
41927;SDS011;27616;51.420;6.788;2023-08-17T13:21:41;20.45;;;12.52;;
41927;SDS011;27616;51.420;6.788;2023-08-17T13:24:07;24.13;;;13.30;;
41927;SDS011;27616;51.420;6.788;2023-08-17T13:26:33;26.23;;;13.82;;
41927;SDS011;27616;51.420;6.788;2023-08-17T13:28:59;26.85;;;14.23;;
41927;SDS011;27616;51.420;6.788;2023-08-17T13:31:25;23.48;;;13.48;;
41927;SDS011;27616;51.420;6.788;2023-08-17T13:33:50;21.23;;;12.10;;
41927;SDS011;27616;51.420;6.788;2023-08-17T13:36:16;23.02;;;13.32;;
41927;SDS011;27616;51.420;6.788;2023-08-17T13:38:42;25.48;;;12.45;;
41927;SDS011;27616;51.420;6.788;2023-08-17T13:41:08;23.08;;;13.38;;
41927;SDS011;27616;51.420;6.788;2023-08-17T13:43:34;28.23;;;13.02;;
41927;SDS011;27616;51.420;6.788;2023-08-17T13:45:59;21.88;;;12.27;;
41927;SDS011;27616;51.420;6.788;2023-08-17T13:48:25;23.77;;;12.68;;
41927;SDS011;27616;51.420;6.788;2023-08-17T13:50:51;24.08;;;11.63;;
41927;SDS011;27616;51.420;6.788;2023-08-17T13:53:16;22.92;;;12.50;;
41927;SDS011;27616;51.420;6.788;2023-08-17T13:55:42;21.45;;;11.85;;
41927;SDS011;27616;51.420;6.788;2023-08-17T13:58:08;23.63;;;12.70;;
41927;SDS011;27616;51.420;6.788;2023-08-17T14:00:35;20.20;;;12.25;;
41927;SDS011;27616;51.420;6.788;2023-08-17T14:03:01;19.58;;;11.13;;
41927;SDS011;27616;51.420;6.788;2023-08-17T14:05:27;20.58;;;12.30;;
41927;SDS011;27616;51.420;6.788;2023-08-17T14:07:52;24.23;;;12.52;;
41927;SDS011;27616;51.420;6.788;2023-08-17T14:10:18;21.25;;;12.98;;
41927;SDS011;27616;51.420;6.788;2023-08-17T14:12:44;25.02;;;12.75;;
41927;SDS011;27616;51.420;6.788;2023-08-17T14:15:09;22.33;;;12.68;;
41927;SDS011;27616;51.420;6.788;2023-08-17T14:17:35;21.05;;;11.65;;
41927;SDS011;27616;51.420;6.788;2023-08-17T14:20:01;23.80;;;12.02;;
41927;SDS011;27616;51.420;6.788;2023-08-17T14:22:27;22.17;;;12.07;;
41927;SDS011;27616;51.420;6.788;2023-08-17T14:24:53;23.75;;;12.15;;
41927;SDS011;27616;51.420;6.788;2023-08-17T14:27:18;24.35;;;12.45;;
41927;SDS011;27616;51.420;6.788;2023-08-17T14:29:44;22.98;;;11.10;;
41927;SDS011;27616;51.420;6.788;2023-08-17T14:32:09;23.50;;;11.93;;
41927;SDS011;27616;51.420;6.788;2023-08-17T14:34:35;19.40;;;10.88;;
41927;SDS011;27616;51.420;6.788;2023-08-17T14:37:01;20.20;;;10.88;;
41927;SDS011;27616;51.420;6.788;2023-08-17T14:39:26;20.65;;;10.50;;
41927;SDS011;27616;51.420;6.788;2023-08-17T14:41:52;19.05;;;9.57;;